sensor_id;sensor_type;location;lat;lon;timestamp;temperature;humidity
23783;DHT22;12071;50.850;4.446;2022-11-15T00:00:50;12.70;53.10
23783;DHT22;12071;50.850;4.446;2022-11-15T00:03:17;12.60;64.10
23783;DHT22;12071;50.850;4.446;2022-11-15T00:05:44;12.50;63.30
23783;DHT22;12071;50.850;4.446;2022-11-15T00:08:10;12.60;66.20
23783;DHT22;12071;50.850;4.446;2022-11-15T00:10:36;12.70;63.80
23783;DHT22;12071;50.850;4.446;2022-11-15T00:13:10;12.80;63.30
23783;DHT22;12071;50.850;4.446;2022-11-15T00:15:37;12.60;60.40
23783;DHT22;12071;50.850;4.446;2022-11-15T00:18:03;12.60;65.80
23783;DHT22;12071;50.850;4.446;2022-11-15T00:20:29;12.60;68.10
23783;DHT22;12071;50.850;4.446;2022-11-15T00:22:55;12.60;71.20
23783;DHT22;12071;50.850;4.446;2022-11-15T00:25:21;12.80;68.70
23783;DHT22;12071;50.850;4.446;2022-11-15T00:27:46;12.80;61.10
23783;DHT22;12071;50.850;4.446;2022-11-15T00:30:12;12.80;61.70
23783;DHT22;12071;50.850;4.446;2022-11-15T00:32:38;12.80;61.80
23783;DHT22;12071;50.850;4.446;2022-11-15T00:35:04;13.00;56.50
23783;DHT22;12071;50.850;4.446;2022-11-15T00:37:29;13.00;51.40
23783;DHT22;12071;50.850;4.446;2022-11-15T00:39:55;12.90;54.90
23783;DHT22;12071;50.850;4.446;2022-11-15T00:42:20;12.50;62.00
23783;DHT22;12071;50.850;4.446;2022-11-15T00:44:46;12.60;73.70
23783;DHT22;12071;50.850;4.446;2022-11-15T00:47:11;12.70;69.00
23783;DHT22;12071;50.850;4.446;2022-11-15T00:49:37;12.70;72.00
23783;DHT22;12071;50.850;4.446;2022-11-15T00:52:02;12.70;69.50
23783;DHT22;12071;50.850;4.446;2022-11-15T00:54:28;12.90;68.80
23783;DHT22;12071;50.850;4.446;2022-11-15T00:56:54;12.70;67.10
23783;DHT22;12071;50.850;4.446;2022-11-15T00:59:19;12.60;74.10
23783;DHT22;12071;50.850;4.446;2022-11-15T01:01:45;12.60;76.60
23783;DHT22;12071;50.850;4.446;2022-11-15T01:04:10;12.50;78.60
23783;DHT22;12071;50.850;4.446;2022-11-15T01:06:36;12.60;88.30
23783;DHT22;12071;50.850;4.446;2022-11-15T01:09:02;12.70;86.10
23783;DHT22;12071;50.850;4.446;2022-11-15T01:11:27;12.80;84.60
23783;DHT22;12071;50.850;4.446;2022-11-15T01:13:54;12.90;77.70
23783;DHT22;12071;50.850;4.446;2022-11-15T01:16:20;12.80;77.70
23783;DHT22;12071;50.850;4.446;2022-11-15T01:18:46;12.70;83.30
23783;DHT22;12071;50.850;4.446;2022-11-15T01:21:14;12.70;84.70
23783;DHT22;12071;50.850;4.446;2022-11-15T01:23:40;12.80;83.40
23783;DHT22;12071;50.850;4.446;2022-11-15T01:26:09;12.80;80.00
23783;DHT22;12071;50.850;4.446;2022-11-15T01:28:36;12.80;79.80
23783;DHT22;12071;50.850;4.446;2022-11-15T01:31:05;12.80;84.60
23783;DHT22;12071;50.850;4.446;2022-11-15T01:33:34;12.90;79.60
23783;DHT22;12071;50.850;4.446;2022-11-15T01:36:03;12.70;81.20
23783;DHT22;12071;50.850;4.446;2022-11-15T01:38:31;12.70;86.40
23783;DHT22;12071;50.850;4.446;2022-11-15T01:40:57;12.80;89.10
23783;DHT22;12071;50.850;4.446;2022-11-15T01:43:27;12.70;86.00
23783;DHT22;12071;50.850;4.446;2022-11-15T01:45:58;12.50;90.70
23783;DHT22;12071;50.850;4.446;2022-11-15T01:48:25;12.50;92.70
23783;DHT22;12071;50.850;4.446;2022-11-15T01:50:54;12.50;93.00
23783;DHT22;12071;50.850;4.446;2022-11-15T01:53:21;12.50;94.00
23783;DHT22;12071;50.850;4.446;2022-11-15T01:55:48;12.70;92.40
23783;DHT22;12071;50.850;4.446;2022-11-15T01:58:14;12.70;90.90
23783;DHT22;12071;50.850;4.446;2022-11-15T02:00:40;12.80;90.00
23783;DHT22;12071;50.850;4.446;2022-11-15T02:03:06;12.70;89.80
23783;DHT22;12071;50.850;4.446;2022-11-15T02:05:32;12.80;90.00
23783;DHT22;12071;50.850;4.446;2022-11-15T02:08:00;13.00;87.30
23783;DHT22;12071;50.850;4.446;2022-11-15T02:10:27;13.00;77.60
23783;DHT22;12071;50.850;4.446;2022-11-15T02:12:54;13.00;74.50
23783;DHT22;12071;50.850;4.446;2022-11-15T02:15:21;13.00;76.00
23783;DHT22;12071;50.850;4.446;2022-11-15T02:18:23;12.80;75.10
23783;DHT22;12071;50.850;4.446;2022-11-15T02:26:00;13.10;75.40
23783;DHT22;12071;50.850;4.446;2022-11-15T02:28:44;13.20;68.30
23783;DHT22;12071;50.850;4.446;2022-11-15T02:31:36;13.10;54.80
23783;DHT22;12071;50.850;4.446;2022-11-15T02:34:40;13.00;59.90
23783;DHT22;12071;50.850;4.446;2022-11-15T02:37:16;12.80;66.40
23783;DHT22;12071;50.850;4.446;2022-11-15T02:42:15;12.70;69.30
23783;DHT22;12071;50.850;4.446;2022-11-15T02:45:05;12.60;76.50
23783;DHT22;12071;50.850;4.446;2022-11-15T02:47:37;12.70;78.20
23783;DHT22;12071;50.850;4.446;2022-11-15T02:50:08;12.80;77.80
23783;DHT22;12071;50.850;4.446;2022-11-15T02:52:35;13.00;67.20
23783;DHT22;12071;50.850;4.446;2022-11-15T02:55:01;13.00;56.90
23783;DHT22;12071;50.850;4.446;2022-11-15T03:00:04;12.90;56.30
23783;DHT22;12071;50.850;4.446;2022-11-15T03:07:45;13.00;49.80
23783;DHT22;12071;50.850;4.446;2022-11-15T03:10:25;12.80;47.40
23783;DHT22;12071;50.850;4.446;2022-11-15T03:12:57;12.60;52.20
23783;DHT22;12071;50.850;4.446;2022-11-15T03:15:26;12.80;54.80
23783;DHT22;12071;50.850;4.446;2022-11-15T03:18:40;13.00;47.00
23783;DHT22;12071;50.850;4.446;2022-11-15T03:20:46;13.00;37.60
23783;DHT22;12071;50.850;4.446;2022-11-15T03:23:13;12.90;40.30
23783;DHT22;12071;50.850;4.446;2022-11-15T03:25:43;12.90;33.10
23783;DHT22;12071;50.850;4.446;2022-11-15T03:28:12;12.70;41.90
23783;DHT22;12071;50.850;4.446;2022-11-15T03:30:40;12.70;45.50
23783;DHT22;12071;50.850;4.446;2022-11-15T03:33:06;12.70;42.60
23783;DHT22;12071;50.850;4.446;2022-11-15T03:35:40;12.90;33.80
23783;DHT22;12071;50.850;4.446;2022-11-15T03:38:25;12.70;28.70
23783;DHT22;12071;50.850;4.446;2022-11-15T03:40:59;12.50;36.50
23783;DHT22;12071;50.850;4.446;2022-11-15T03:43:34;12.60;41.90
23783;DHT22;12071;50.850;4.446;2022-11-15T03:46:11;12.70;36.30
23783;DHT22;12071;50.850;4.446;2022-11-15T03:48:43;12.80;30.20
23783;DHT22;12071;50.850;4.446;2022-11-15T03:51:12;12.90;26.10
23783;DHT22;12071;50.850;4.446;2022-11-15T03:53:38;12.70;23.20
23783;DHT22;12071;50.850;4.446;2022-11-15T03:56:03;12.60;27.20
23783;DHT22;12071;50.850;4.446;2022-11-15T03:58:29;12.70;22.10
23783;DHT22;12071;50.850;4.446;2022-11-15T04:00:54;12.70;16.70
23783;DHT22;12071;50.850;4.446;2022-11-15T04:03:20;12.60;20.70
23783;DHT22;12071;50.850;4.446;2022-11-15T04:05:46;12.60;23.30
23783;DHT22;12071;50.850;4.446;2022-11-15T04:08:11;12.60;18.70
23783;DHT22;12071;50.850;4.446;2022-11-15T04:10:37;12.50;20.40
23783;DHT22;12071;50.850;4.446;2022-11-15T04:13:03;12.60;18.90
23783;DHT22;12071;50.850;4.446;2022-11-15T04:15:28;12.40;16.90
23783;DHT22;12071;50.850;4.446;2022-11-15T04:17:56;12.40;22.20
23783;DHT22;12071;50.850;4.446;2022-11-15T04:20:27;12.50;19.40
23783;DHT22;12071;50.850;4.446;2022-11-15T04:25:59;12.50;16.00
23783;DHT22;12071;50.850;4.446;2022-11-15T04:28:25;12.70;11.20
23783;DHT22;12071;50.850;4.446;2022-11-15T04:30:50;12.80;1.40
23783;DHT22;12071;50.850;4.446;2022-11-15T04:33:16;12.60;6.00
23783;DHT22;12071;50.850;4.446;2022-11-15T04:35:42;12.50;2.60
23783;DHT22;12071;50.850;4.446;2022-11-15T04:38:10;12.50;8.00
23783;DHT22;12071;50.850;4.446;2022-11-15T04:40:36;12.50;5.80
23783;DHT22;12071;50.850;4.446;2022-11-15T04:43:02;12.60;1.00
23783;DHT22;12071;50.850;4.446;2022-11-15T04:45:28;12.60;2.80
23783;DHT22;12071;50.850;4.446;2022-11-15T04:47:53;12.60;1.90
23783;DHT22;12071;50.850;4.446;2022-11-15T04:50:19;12.50;1.00
23783;DHT22;12071;50.850;4.446;2022-11-15T04:52:51;12.50;1.00
23783;DHT22;12071;50.850;4.446;2022-11-15T04:55:17;12.60;1.00
23783;DHT22;12071;50.850;4.446;2022-11-15T04:57:43;12.60;1.00
23783;DHT22;12071;50.850;4.446;2022-11-15T05:00:12;12.40;1.00
23783;DHT22;12071;50.850;4.446;2022-11-15T05:02:38;12.20;1.00
23783;DHT22;12071;50.850;4.446;2022-11-15T05:05:23;12.30;1.00
23783;DHT22;12071;50.850;4.446;2022-11-15T05:07:49;12.10;2.50
23783;DHT22;12071;50.850;4.446;2022-11-15T05:10:15;12.00;4.20
23783;DHT22;12071;50.850;4.446;2022-11-15T05:12:41;12.00;7.20
23783;DHT22;12071;50.850;4.446;2022-11-15T05:15:07;12.20;3.70
23783;DHT22;12071;50.850;4.446;2022-11-15T05:17:33;12.10;2.10
23783;DHT22;12071;50.850;4.446;2022-11-15T05:19:59;11.90;3.00
23783;DHT22;12071;50.850;4.446;2022-11-15T05:22:24;11.80;9.10
23783;DHT22;12071;50.850;4.446;2022-11-15T05:24:50;11.90;13.10
23783;DHT22;12071;50.850;4.446;2022-11-15T05:27:16;11.80;10.70
23783;DHT22;12071;50.850;4.446;2022-11-15T05:29:41;11.90;9.20
23783;DHT22;12071;50.850;4.446;2022-11-15T05:32:08;11.70;8.20
23783;DHT22;12071;50.850;4.446;2022-11-15T05:34:35;11.80;10.30
23783;DHT22;12071;50.850;4.446;2022-11-15T05:37:01;11.90;5.50
23783;DHT22;12071;50.850;4.446;2022-11-15T05:39:26;11.80;3.40
23783;DHT22;12071;50.850;4.446;2022-11-15T05:42:01;11.80;7.80
23783;DHT22;12071;50.850;4.446;2022-11-15T05:44:28;11.60;5.90
23783;DHT22;12071;50.850;4.446;2022-11-15T05:46:54;11.50;15.90
23783;DHT22;12071;50.850;4.446;2022-11-15T05:49:24;11.60;14.30
23783;DHT22;12071;50.850;4.446;2022-11-15T05:51:51;11.60;14.60
23783;DHT22;12071;50.850;4.446;2022-11-15T05:54:19;11.60;12.00
23783;DHT22;12071;50.850;4.446;2022-11-15T05:56:45;11.40;13.20
23783;DHT22;12071;50.850;4.446;2022-11-15T05:59:11;11.30;18.80
23783;DHT22;12071;50.850;4.446;2022-11-15T06:01:38;11.30;21.90
23783;DHT22;12071;50.850;4.446;2022-11-15T06:04:04;11.40;23.20
23783;DHT22;12071;50.850;4.446;2022-11-15T06:06:29;11.50;19.40
23783;DHT22;12071;50.850;4.446;2022-11-15T06:08:55;11.60;17.00
23783;DHT22;12071;50.850;4.446;2022-11-15T06:11:21;11.40;14.70
23783;DHT22;12071;50.850;4.446;2022-11-15T06:13:46;11.30;21.80
23783;DHT22;12071;50.850;4.446;2022-11-15T06:16:12;11.30;21.80
23783;DHT22;12071;50.850;4.446;2022-11-15T06:18:38;11.30;20.30
23783;DHT22;12071;50.850;4.446;2022-11-15T06:21:04;11.20;22.40
23783;DHT22;12071;50.850;4.446;2022-11-15T06:23:34;11.20;26.90
23783;DHT22;12071;50.850;4.446;2022-11-15T06:26:01;11.20;20.40
23783;DHT22;12071;50.850;4.446;2022-11-15T06:28:31;11.20;20.30
23783;DHT22;12071;50.850;4.446;2022-11-15T06:31:09;11.10;22.60
23783;DHT22;12071;50.850;4.446;2022-11-15T06:33:34;11.00;23.30
23783;DHT22;12071;50.850;4.446;2022-11-15T06:36:05;11.10;24.50
23783;DHT22;12071;50.850;4.446;2022-11-15T06:38:31;11.00;23.40
23783;DHT22;12071;50.850;4.446;2022-11-15T06:41:08;11.00;19.60
23783;DHT22;12071;50.850;4.446;2022-11-15T06:43:34;11.00;21.10
23783;DHT22;12071;50.850;4.446;2022-11-15T06:46:01;10.90;21.40
23783;DHT22;12071;50.850;4.446;2022-11-15T06:48:28;10.80;25.90
23783;DHT22;12071;50.850;4.446;2022-11-15T06:50:56;10.80;27.70
23783;DHT22;12071;50.850;4.446;2022-11-15T06:53:22;10.70;27.80
23783;DHT22;12071;50.850;4.446;2022-11-15T06:55:48;10.60;29.30
23783;DHT22;12071;50.850;4.446;2022-11-15T06:58:14;10.80;28.10
23783;DHT22;12071;50.850;4.446;2022-11-15T07:00:40;10.80;25.40
23783;DHT22;12071;50.850;4.446;2022-11-15T07:03:06;10.80;25.20
23783;DHT22;12071;50.850;4.446;2022-11-15T07:05:32;10.70;25.60
23783;DHT22;12071;50.850;4.446;2022-11-15T07:07:58;10.70;27.20
23783;DHT22;12071;50.850;4.446;2022-11-15T07:10:24;10.60;29.90
23783;DHT22;12071;50.850;4.446;2022-11-15T07:12:55;10.70;28.90
23783;DHT22;12071;50.850;4.446;2022-11-15T07:15:23;10.70;29.60
23783;DHT22;12071;50.850;4.446;2022-11-15T07:17:49;10.80;28.40
23783;DHT22;12071;50.850;4.446;2022-11-15T07:20:15;10.70;22.10
23783;DHT22;12071;50.850;4.446;2022-11-15T07:22:41;10.70;24.40
23783;DHT22;12071;50.850;4.446;2022-11-15T07:25:08;10.70;28.60
23783;DHT22;12071;50.850;4.446;2022-11-15T07:27:34;10.60;29.90
23783;DHT22;12071;50.850;4.446;2022-11-15T07:29:59;10.60;27.30
23783;DHT22;12071;50.850;4.446;2022-11-15T07:32:25;10.60;30.40
23783;DHT22;12071;50.850;4.446;2022-11-15T07:34:50;10.50;33.80
23783;DHT22;12071;50.850;4.446;2022-11-15T07:37:16;10.60;34.90
23783;DHT22;12071;50.850;4.446;2022-11-15T07:39:42;10.50;34.90
23783;DHT22;12071;50.850;4.446;2022-11-15T07:42:08;10.60;34.10
23783;DHT22;12071;50.850;4.446;2022-11-15T07:44:52;10.70;34.50
23783;DHT22;12071;50.850;4.446;2022-11-15T07:47:19;10.70;27.80
23783;DHT22;12071;50.850;4.446;2022-11-15T07:49:46;10.70;27.50
23783;DHT22;12071;50.850;4.446;2022-11-15T07:52:12;10.70;23.90
23783;DHT22;12071;50.850;4.446;2022-11-15T07:54:38;10.70;25.80
23783;DHT22;12071;50.850;4.446;2022-11-15T07:57:04;10.80;23.80
23783;DHT22;12071;50.850;4.446;2022-11-15T07:59:29;10.80;18.00
23783;DHT22;12071;50.850;4.446;2022-11-15T08:01:55;10.70;19.70
23783;DHT22;12071;50.850;4.446;2022-11-15T08:04:21;10.70;22.40
23783;DHT22;12071;50.850;4.446;2022-11-15T08:06:46;10.70;22.70
23783;DHT22;12071;50.850;4.446;2022-11-15T08:09:12;10.80;18.10
23783;DHT22;12071;50.850;4.446;2022-11-15T08:11:38;10.70;15.60
23783;DHT22;12071;50.850;4.446;2022-11-15T08:14:03;10.90;12.00
23783;DHT22;12071;50.850;4.446;2022-11-15T08:16:29;10.80;9.50
23783;DHT22;12071;50.850;4.446;2022-11-15T08:18:55;10.80;8.80
23783;DHT22;12071;50.850;4.446;2022-11-15T08:21:21;10.90;7.30
23783;DHT22;12071;50.850;4.446;2022-11-15T08:23:46;10.90;3.60
23783;DHT22;12071;50.850;4.446;2022-11-15T08:26:12;10.90;2.20
23783;DHT22;12071;50.850;4.446;2022-11-15T08:28:38;11.00;1.00
23783;DHT22;12071;50.850;4.446;2022-11-15T08:31:04;10.90;1.00
23783;DHT22;12071;50.850;4.446;2022-11-15T08:33:31;11.00;1.00
23783;DHT22;12071;50.850;4.446;2022-11-15T08:35:58;11.00;1.00
23783;DHT22;12071;50.850;4.446;2022-11-15T08:38:24;11.10;1.00
23783;DHT22;12071;50.850;4.446;2022-11-15T08:40:52;11.10;1.00
23783;DHT22;12071;50.850;4.446;2022-11-15T08:43:18;11.00;1.00
23783;DHT22;12071;50.850;4.446;2022-11-15T08:45:44;11.00;1.00
23783;DHT22;12071;50.850;4.446;2022-11-15T08:48:10;11.00;1.00
23783;DHT22;12071;50.850;4.446;2022-11-15T08:50:35;11.10;1.00
23783;DHT22;12071;50.850;4.446;2022-11-15T08:53:06;11.20;1.00
23783;DHT22;12071;50.850;4.446;2022-11-15T08:55:32;11.20;1.00
23783;DHT22;12071;50.850;4.446;2022-11-15T08:57:57;11.10;1.00
23783;DHT22;12071;50.850;4.446;2022-11-15T09:00:23;11.20;1.00
23783;DHT22;12071;50.850;4.446;2022-11-15T09:02:49;11.30;1.00
23783;DHT22;12071;50.850;4.446;2022-11-15T09:05:14;11.30;1.00
23783;DHT22;12071;50.850;4.446;2022-11-15T09:07:41;11.40;1.00
23783;DHT22;12071;50.850;4.446;2022-11-15T09:10:07;11.50;1.00
23783;DHT22;12071;50.850;4.446;2022-11-15T09:12:32;11.50;1.00
23783;DHT22;12071;50.850;4.446;2022-11-15T09:14:58;11.60;1.00
23783;DHT22;12071;50.850;4.446;2022-11-15T09:17:24;11.60;1.00
23783;DHT22;12071;50.850;4.446;2022-11-15T09:19:49;11.60;1.00
23783;DHT22;12071;50.850;4.446;2022-11-15T09:22:15;11.80;1.00
23783;DHT22;12071;50.850;4.446;2022-11-15T09:24:40;11.80;1.00
23783;DHT22;12071;50.850;4.446;2022-11-15T09:27:06;11.70;1.00
23783;DHT22;12071;50.850;4.446;2022-11-15T09:29:31;11.80;1.00
23783;DHT22;12071;50.850;4.446;2022-11-15T09:31:57;11.90;1.00
23783;DHT22;12071;50.850;4.446;2022-11-15T09:34:22;12.00;1.00
23783;DHT22;12071;50.850;4.446;2022-11-15T09:36:48;12.00;1.00
23783;DHT22;12071;50.850;4.446;2022-11-15T09:39:14;12.20;1.00
23783;DHT22;12071;50.850;4.446;2022-11-15T09:47:13;12.40;99.90
23783;DHT22;12071;50.850;4.446;2022-11-15T09:49:40;12.40;99.90
23783;DHT22;12071;50.850;4.446;2022-11-15T09:52:07;12.40;99.90
23783;DHT22;12071;50.850;4.446;2022-11-15T09:54:37;12.60;99.90
23783;DHT22;12071;50.850;4.446;2022-11-15T10:03:06;12.60;99.90
23783;DHT22;12071;50.850;4.446;2022-11-15T10:05:40;12.70;99.90
23783;DHT22;12071;50.850;4.446;2022-11-15T10:10:47;12.80;99.90
23783;DHT22;12071;50.850;4.446;2022-11-15T10:13:43;12.80;99.90
23783;DHT22;12071;50.850;4.446;2022-11-15T10:21:38;12.60;99.90
23783;DHT22;12071;50.850;4.446;2022-11-15T10:24:13;12.80;99.90
23783;DHT22;12071;50.850;4.446;2022-11-15T10:26:47;12.80;99.90
23783;DHT22;12071;50.850;4.446;2022-11-15T10:29:24;12.90;99.90
23783;DHT22;12071;50.850;4.446;2022-11-15T10:31:50;13.10;99.90
23783;DHT22;12071;50.850;4.446;2022-11-15T10:34:21;13.10;99.90
23783;DHT22;12071;50.850;4.446;2022-11-15T10:36:58;13.10;99.90
23783;DHT22;12071;50.850;4.446;2022-11-15T10:39:24;13.40;98.50
23783;DHT22;12071;50.850;4.446;2022-11-15T10:41:50;13.30;52.80
23783;DHT22;12071;50.850;4.446;2022-11-15T10:46:43;13.40;36.30
23783;DHT22;12071;50.850;4.446;2022-11-15T10:49:26;13.40;1.00
23783;DHT22;12071;50.850;4.446;2022-11-15T10:52:00;13.30;13.10
23783;DHT22;12071;50.850;4.446;2022-11-15T10:54:50;13.40;29.50
23783;DHT22;12071;50.850;4.446;2022-11-15T10:57:26;13.30;28.50
23783;DHT22;12071;50.850;4.446;2022-11-15T10:59:55;13.40;26.60
23783;DHT22;12071;50.850;4.446;2022-11-15T11:03:05;13.50;1.00
23783;DHT22;12071;50.850;4.446;2022-11-15T11:05:41;13.50;1.00
23783;DHT22;12071;50.850;4.446;2022-11-15T11:08:22;13.60;1.00
23783;DHT22;12071;50.850;4.446;2022-11-15T11:10:57;13.60;1.00
23783;DHT22;12071;50.850;4.446;2022-11-15T11:13:28;13.50;1.00
23783;DHT22;12071;50.850;4.446;2022-11-15T11:18:34;13.70;1.00
23783;DHT22;12071;50.850;4.446;2022-11-15T11:21:10;13.90;1.00
23783;DHT22;12071;50.850;4.446;2022-11-15T11:23:56;13.60;1.00
23783;DHT22;12071;50.850;4.446;2022-11-15T11:26:46;13.50;1.00
23783;DHT22;12071;50.850;4.446;2022-11-15T11:29:41;13.70;1.00
23783;DHT22;12071;50.850;4.446;2022-11-15T11:40:39;14.00;99.90
23783;DHT22;12071;50.850;4.446;2022-11-15T11:43:25;14.10;99.90
23783;DHT22;12071;50.850;4.446;2022-11-15T11:46:16;14.30;99.90
23783;DHT22;12071;50.850;4.446;2022-11-15T11:48:48;14.50;99.90
23783;DHT22;12071;50.850;4.446;2022-11-15T11:53:58;14.50;99.90
23783;DHT22;12071;50.850;4.446;2022-11-15T11:56:32;14.50;99.90
23783;DHT22;12071;50.850;4.446;2022-11-15T12:01:41;14.50;99.90
23783;DHT22;12071;50.850;4.446;2022-11-15T12:04:35;14.50;99.90
23783;DHT22;12071;50.850;4.446;2022-11-15T12:07:15;14.50;99.90
23783;DHT22;12071;50.850;4.446;2022-11-15T12:09:54;14.50;99.90
23783;DHT22;12071;50.850;4.446;2022-11-15T12:15:43;14.40;99.90
23783;DHT22;12071;50.850;4.446;2022-11-15T12:18:13;14.30;99.90
23783;DHT22;12071;50.850;4.446;2022-11-15T12:20:49;14.30;99.90
23783;DHT22;12071;50.850;4.446;2022-11-15T12:23:25;14.30;99.90
23783;DHT22;12071;50.850;4.446;2022-11-15T12:26:01;14.40;99.90
23783;DHT22;12071;50.850;4.446;2022-11-15T12:28:42;14.40;99.90
23783;DHT22;12071;50.850;4.446;2022-11-15T12:33:46;14.10;1.00
23783;DHT22;12071;50.850;4.446;2022-11-15T12:38:57;14.30;1.00
23783;DHT22;12071;50.850;4.446;2022-11-15T12:41:28;14.30;1.00
23783;DHT22;12071;50.850;4.446;2022-11-15T12:43:54;14.20;1.00
23783;DHT22;12071;50.850;4.446;2022-11-15T12:59:53;14.30;1.00
23783;DHT22;12071;50.850;4.446;2022-11-15T13:02:36;14.40;1.00
23783;DHT22;12071;50.850;4.446;2022-11-15T13:17:50;14.80;1.00
23783;DHT22;12071;50.850;4.446;2022-11-15T13:20:22;14.80;1.00
23783;DHT22;12071;50.850;4.446;2022-11-15T13:31:03;14.70;1.00
23783;DHT22;12071;50.850;4.446;2022-11-15T13:33:39;14.70;1.00
23783;DHT22;12071;50.850;4.446;2022-11-15T13:36:15;14.60;1.00
23783;DHT22;12071;50.850;4.446;2022-11-15T13:38:43;14.50;1.00
23783;DHT22;12071;50.850;4.446;2022-11-15T13:41:21;14.40;23.30
23783;DHT22;12071;50.850;4.446;2022-11-15T13:43:49;14.50;39.20
23783;DHT22;12071;50.850;4.446;2022-11-15T13:46:26;14.50;27.50
23783;DHT22;12071;50.850;4.446;2022-11-15T13:49:04;14.40;99.90
23783;DHT22;12071;50.850;4.446;2022-11-15T13:51:33;14.60;87.70
23783;DHT22;12071;50.850;4.446;2022-11-15T13:54:15;14.60;52.40
23783;DHT22;12071;50.850;4.446;2022-11-15T13:56:52;14.50;49.30
23783;DHT22;12071;50.850;4.446;2022-11-15T13:59:29;14.40;99.90
23783;DHT22;12071;50.850;4.446;2022-11-15T14:01:57;14.50;84.00
23783;DHT22;12071;50.850;4.446;2022-11-15T14:04:25;14.60;91.40
23783;DHT22;12071;50.850;4.446;2022-11-15T14:06:57;14.50;99.90
23783;DHT22;12071;50.850;4.446;2022-11-15T14:09:39;14.60;99.90
23783;DHT22;12071;50.850;4.446;2022-11-15T14:12:49;14.50;99.90
23783;DHT22;12071;50.850;4.446;2022-11-15T14:15:31;14.60;99.90
23783;DHT22;12071;50.850;4.446;2022-11-15T14:17:57;14.60;99.90
23783;DHT22;12071;50.850;4.446;2022-11-15T14:22:58;14.50;99.90
23783;DHT22;12071;50.850;4.446;2022-11-15T14:25:28;14.50;99.90
23783;DHT22;12071;50.850;4.446;2022-11-15T14:30:35;14.60;99.90
23783;DHT22;12071;50.850;4.446;2022-11-15T14:33:01;14.50;99.90
23783;DHT22;12071;50.850;4.446;2022-11-15T14:35:26;14.40;99.90
23783;DHT22;12071;50.850;4.446;2022-11-15T14:37:52;14.40;99.90
23783;DHT22;12071;50.850;4.446;2022-11-15T14:40:20;14.40;99.90
23783;DHT22;12071;50.850;4.446;2022-11-15T14:42:47;14.30;99.90
23783;DHT22;12071;50.850;4.446;2022-11-15T14:45:19;14.20;99.90
23783;DHT22;12071;50.850;4.446;2022-11-15T14:47:45;14.10;99.90
23783;DHT22;12071;50.850;4.446;2022-11-15T14:50:19;13.90;99.90
23783;DHT22;12071;50.850;4.446;2022-11-15T14:52:46;14.00;1.00
23783;DHT22;12071;50.850;4.446;2022-11-15T14:57:51;14.10;99.90
23783;DHT22;12071;50.850;4.446;2022-11-15T15:00:18;14.20;99.90
23783;DHT22;12071;50.850;4.446;2022-11-15T15:02:45;14.10;99.90
23783;DHT22;12071;50.850;4.446;2022-11-15T15:05:32;14.10;1.00
23783;DHT22;12071;50.850;4.446;2022-11-15T15:07:58;14.10;1.00
23783;DHT22;12071;50.850;4.446;2022-11-15T15:10:25;14.00;1.00
23783;DHT22;12071;50.850;4.446;2022-11-15T15:12:51;14.10;1.00
23783;DHT22;12071;50.850;4.446;2022-11-15T15:15:22;14.00;1.00
23783;DHT22;12071;50.850;4.446;2022-11-15T15:17:49;13.90;1.00
23783;DHT22;12071;50.850;4.446;2022-11-15T15:20:15;14.00;1.00
23783;DHT22;12071;50.850;4.446;2022-11-15T15:22:40;14.00;1.00
23783;DHT22;12071;50.850;4.446;2022-11-15T15:25:42;13.90;1.00
23783;DHT22;12071;50.850;4.446;2022-11-15T15:28:09;13.90;1.00
23783;DHT22;12071;50.850;4.446;2022-11-15T15:30:34;13.90;1.00
23783;DHT22;12071;50.850;4.446;2022-11-15T15:33:00;13.80;1.00
23783;DHT22;12071;50.850;4.446;2022-11-15T15:35:30;13.80;1.00
23783;DHT22;12071;50.850;4.446;2022-11-15T15:37:57;13.70;1.00
23783;DHT22;12071;50.850;4.446;2022-11-15T15:40:25;13.70;1.00
23783;DHT22;12071;50.850;4.446;2022-11-15T15:42:51;13.70;1.00
23783;DHT22;12071;50.850;4.446;2022-11-15T15:45:17;13.80;1.00
23783;DHT22;12071;50.850;4.446;2022-11-15T15:47:44;13.90;1.00
23783;DHT22;12071;50.850;4.446;2022-11-15T15:50:26;13.70;1.00
23783;DHT22;12071;50.850;4.446;2022-11-15T15:52:54;13.70;1.00
23783;DHT22;12071;50.850;4.446;2022-11-15T15:55:21;13.80;1.00
23783;DHT22;12071;50.850;4.446;2022-11-15T15:57:47;13.70;1.00
23783;DHT22;12071;50.850;4.446;2022-11-15T16:00:13;13.80;1.00
23783;DHT22;12071;50.850;4.446;2022-11-15T16:02:39;13.60;1.00
23783;DHT22;12071;50.850;4.446;2022-11-15T16:05:05;13.60;1.00
23783;DHT22;12071;50.850;4.446;2022-11-15T16:07:32;13.70;1.00
23783;DHT22;12071;50.850;4.446;2022-11-15T16:09:57;13.50;1.00
23783;DHT22;12071;50.850;4.446;2022-11-15T16:12:30;13.50;1.00
23783;DHT22;12071;50.850;4.446;2022-11-15T16:14:56;13.40;1.00
23783;DHT22;12071;50.850;4.446;2022-11-15T16:17:26;13.50;1.00
23783;DHT22;12071;50.850;4.446;2022-11-15T16:19:53;13.50;1.00
23783;DHT22;12071;50.850;4.446;2022-11-15T16:22:19;13.50;1.00
23783;DHT22;12071;50.850;4.446;2022-11-15T16:24:45;13.40;2.30
23783;DHT22;12071;50.850;4.446;2022-11-15T16:27:17;13.40;9.10
23783;DHT22;12071;50.850;4.446;2022-11-15T16:29:43;13.50;4.70
23783;DHT22;12071;50.850;4.446;2022-11-15T16:32:10;13.60;2.20
23783;DHT22;12071;50.850;4.446;2022-11-15T16:34:36;13.50;2.70
23783;DHT22;12071;50.850;4.446;2022-11-15T16:37:01;13.50;4.90
23783;DHT22;12071;50.850;4.446;2022-11-15T16:39:27;13.40;12.50
23783;DHT22;12071;50.850;4.446;2022-11-15T16:41:59;13.50;11.90
23783;DHT22;12071;50.850;4.446;2022-11-15T16:44:25;13.60;6.60
23783;DHT22;12071;50.850;4.446;2022-11-15T16:46:51;13.50;9.60
23783;DHT22;12071;50.850;4.446;2022-11-15T16:49:20;13.40;11.80
23783;DHT22;12071;50.850;4.446;2022-11-15T16:51:49;13.30;19.20
23783;DHT22;12071;50.850;4.446;2022-11-15T16:54:15;13.30;24.00
23783;DHT22;12071;50.850;4.446;2022-11-15T16:56:42;13.50;25.20
23783;DHT22;12071;50.850;4.446;2022-11-15T16:59:14;13.50;18.50
23783;DHT22;12071;50.850;4.446;2022-11-15T17:01:40;13.50;19.20
23783;DHT22;12071;50.850;4.446;2022-11-15T17:04:16;13.50;23.60
23783;DHT22;12071;50.850;4.446;2022-11-15T17:06:44;13.40;27.40
23783;DHT22;12071;50.850;4.446;2022-11-15T17:09:19;13.40;27.40
23783;DHT22;12071;50.850;4.446;2022-11-15T17:11:45;13.40;27.90
23783;DHT22;12071;50.850;4.446;2022-11-15T17:14:11;13.40;27.50
23783;DHT22;12071;50.850;4.446;2022-11-15T17:16:38;13.40;30.00
23783;DHT22;12071;50.850;4.446;2022-11-15T17:19:18;13.30;30.20
23783;DHT22;12071;50.850;4.446;2022-11-15T17:21:45;13.30;35.60
23783;DHT22;12071;50.850;4.446;2022-11-15T17:24:11;13.40;37.30
23783;DHT22;12071;50.850;4.446;2022-11-15T17:26:37;13.50;34.20
23783;DHT22;12071;50.850;4.446;2022-11-15T17:29:04;13.50;32.90
23783;DHT22;12071;50.850;4.446;2022-11-15T17:31:33;13.50;34.10
23783;DHT22;12071;50.850;4.446;2022-11-15T17:34:01;13.50;32.50
23783;DHT22;12071;50.850;4.446;2022-11-15T17:36:27;13.40;35.50